Adak Island, Alaska
Current Conditions -  °F | °C
As of 6:36 AM on Thursday 23 Oct 2014 (Local Time) from PADK Reporting Station
Few Clouds Few Clouds  
Wind Chill: 37°   Ceiling: Unl
Heat Index: 46°   Visibility: 10mi
Dew Point: 36°   Wind: 29mph
Humidity: 66%   Direction: 230°SW
Pressure: 30.16"   Gusts: 36mph
Location:  51.88°N, 176.65°W
Report Text: PADK 231536Z AUTO 23025G31KT 10SM FEW049 08/02 A3016 RMK AO1
Loading
Personal Weather Stations






























Interactive Weather Map
Tropical Storm Tracking
New forecast layout! Learn more

10-Day Weather Forecast

Advertisements
Track Severe Weather on mobile